createdAt,value
2018-11-20T00:24:58.580Z,53.9
2018-11-20T00:25:48.071Z,53.9
2018-11-20T00:26:38.406Z,53.9
2018-11-20T00:27:28.756Z,53.9
2018-11-20T00:28:19.371Z,53.9
2018-11-20T00:29:07.808Z,53.9
2018-11-20T00:29:59.276Z,53.9
2018-11-20T00:30:48.483Z,53.9
2018-11-20T00:31:39.040Z,53.9
2018-11-20T00:32:28.610Z,53.9
2018-11-20T00:33:18.601Z,53.8
2018-11-20T00:34:08.924Z,53.8
2018-11-20T00:34:58.786Z,53.8
2018-11-20T00:35:49.355Z,53.8
2018-11-20T00:36:39.270Z,53.8
2018-11-20T00:37:29.488Z,53.8
2018-11-20T00:38:19.813Z,53.8
2018-11-20T00:39:09.587Z,53.8
2018-11-20T00:40:00.195Z,53.8
2018-11-20T00:40:50.230Z,53.8
2018-11-20T00:41:40.309Z,53.8
2018-11-20T00:42:30.976Z,53.8
2018-11-20T00:43:19.837Z,53.8
2018-11-20T00:44:10.200Z,53.8
2018-11-20T00:45:00.045Z,53.8
2018-11-20T00:45:50.560Z,53.8
2018-11-20T00:46:40.097Z,53.8
2018-11-20T00:47:29.452Z,53.8
2018-11-20T00:48:20.477Z,53.8
2018-11-20T00:49:10.279Z,53.7
2018-11-20T00:50:00.317Z,53.8
2018-11-20T00:50:51.211Z,53.7
2018-11-20T00:51:40.452Z,53.7
2018-11-20T00:52:29.616Z,53.7
2018-11-20T00:53:20.074Z,53.7
2018-11-20T00:54:10.442Z,53.7
2018-11-20T00:55:00.491Z,53.7
2018-11-20T00:55:50.570Z,53.7
2018-11-20T00:56:40.589Z,53.7
2018-11-20T00:57:30.869Z,53.6
2018-11-20T00:58:20.949Z,53.7
2018-11-20T00:59:11.512Z,53.6
2018-11-20T01:00:00.728Z,53.6
2018-11-20T01:00:50.801Z,53.6
2018-11-20T01:01:41.416Z,53.6
2018-11-20T01:02:30.807Z,53.6
2018-11-20T01:03:21.553Z,53.6
2018-11-20T01:04:11.032Z,53.6
2018-11-20T01:05:00.797Z,53.6
2018-11-20T01:05:51.433Z,53.6
2018-11-20T01:06:41.804Z,53.6
2018-11-20T01:07:31.570Z,53.6
2018-11-20T01:08:21.221Z,53.6
2018-11-20T01:09:11.898Z,53.6
2018-11-20T01:10:01.551Z,53.6
2018-11-20T01:10:51.845Z,53.6
2018-11-20T01:11:41.863Z,53.6
2018-11-20T01:12:32.143Z,53.6
2018-11-20T01:13:21.358Z,53.6
2018-11-20T01:14:12.026Z,53.6
2018-11-20T01:15:01.275Z,53.6
2018-11-20T01:15:52.695Z,53.5
2018-11-20T01:16:41.917Z,53.5
2018-11-20T01:17:32.230Z,53.5
2018-11-20T01:18:22.195Z,53.5
2018-11-20T01:19:12.083Z,53.5
2018-11-20T01:20:01.863Z,53.5
2018-11-20T01:20:51.965Z,53.5
2018-11-20T01:21:42.835Z,53.5
2018-11-20T01:22:32.900Z,53.5
2018-11-20T01:23:22.972Z,53.4
2018-11-20T01:24:12.255Z,53.5
2018-11-20T01:25:02.023Z,53.4
2018-11-20T01:25:52.855Z,53.4
2018-11-20T01:26:42.196Z,53.4
2018-11-20T01:27:32.744Z,53.4
2018-11-20T01:28:23.012Z,53.4
2018-11-20T01:29:12.574Z,53.4
2018-11-20T01:30:02.424Z,53.4
2018-11-20T01:30:53.457Z,53.4
2018-11-20T01:31:43.530Z,53.4
2018-11-20T01:32:33.008Z,53.4
2018-11-20T01:33:23.643Z,53.4
2018-11-20T01:34:12.932Z,53.4
2018-11-20T01:35:02.587Z,53.4
2018-11-20T01:35:53.540Z,53.4
2018-11-20T01:36:42.545Z,53.4
2018-11-20T01:37:33.169Z,53.4
2018-11-20T01:38:23.701Z,53.4
2018-11-20T01:39:13.642Z,53.4
2018-11-20T01:40:03.026Z,53.4
2018-11-20T01:40:53.409Z,53.4
2018-11-20T01:41:43.732Z,53.4
2018-11-20T01:42:32.939Z,53.3
2018-11-20T01:43:23.479Z,53.3
2018-11-20T01:44:14.251Z,53.3
2018-11-20T01:45:03.453Z,53.3
2018-11-20T01:45:54.293Z,53.3
2018-11-20T01:46:43.403Z,53.3
2018-11-20T01:47:34.340Z,53.3
2018-11-20T01:48:24.677Z,53.3
2018-11-20T01:49:13.781Z,53.3
2018-11-20T01:50:03.991Z,53.3
2018-11-20T01:50:53.901Z,53.3
2018-11-20T01:51:44.256Z,53.3
2018-11-20T01:52:34.134Z,53.3
2018-11-20T01:53:24.778Z,53.3
2018-11-20T01:54:15.090Z,53.3
2018-11-20T01:55:04.885Z,53.3
2018-11-20T01:55:55.247Z,53.3
2018-11-20T01:56:44.953Z,53.3
2018-11-20T01:57:34.163Z,53.3
2018-11-20T01:58:25.412Z,53.2
2018-11-20T01:59:15.173Z,53.3
2018-11-20T02:00:04.461Z,53.3
2018-11-20T02:00:55.023Z,53.2
2018-11-20T02:01:45.603Z,53.2
2018-11-20T02:02:35.352Z,53.2
2018-11-20T02:03:25.737Z,53.2
2018-11-20T02:04:16.093Z,53.2
2018-11-20T02:05:05.292Z,53.2
2018-11-20T02:05:56.152Z,53.2
2018-11-20T02:06:46.275Z,53.1
2018-11-20T02:07:36.010Z,53.2
2018-11-20T02:08:25.608Z,53.1
2018-11-20T02:09:16.342Z,53.2
2018-11-20T02:10:05.945Z,53.1
2018-11-20T02:10:55.969Z,53.1
2018-11-20T02:11:45.765Z,53.1
2018-11-20T02:12:36.381Z,53.1
2018-11-20T02:13:25.387Z,53.1
2018-11-20T02:14:15.912Z,53.1
2018-11-20T02:15:05.962Z,53.1
2018-11-20T02:15:56.591Z,53.1
2018-11-20T02:16:46.436Z,53.1
2018-11-20T02:17:36.125Z,53.1
2018-11-20T02:18:26.493Z,53.1
2018-11-20T02:19:16.874Z,53.1
2018-11-20T02:20:05.924Z,53.1
2018-11-20T02:20:56.678Z,53.1
2018-11-20T02:21:47.016Z,53.1
2018-11-20T02:22:36.818Z,53.1
2018-11-20T02:23:26.859Z,53.1
2018-11-20T02:24:16.511Z,53.1
2018-11-20T02:25:06.697Z,53
2018-11-20T02:25:57.302Z,53.1
2018-11-20T02:26:46.711Z,53
2018-11-20T02:27:37.429Z,53
2018-11-20T02:28:27.233Z,53
2018-11-20T02:29:16.981Z,53
2018-11-20T02:30:07.497Z,53
2018-11-20T02:30:56.806Z,53
2018-11-20T02:31:47.336Z,53
2018-11-20T02:32:37.238Z,53
2018-11-20T02:33:28.123Z,52.9
2018-11-20T02:34:17.634Z,52.9
2018-11-20T02:35:07.669Z,53
2018-11-20T02:35:56.970Z,52.9
2018-11-20T02:36:47.771Z,52.9
2018-11-20T02:37:38.148Z,52.9
2018-11-20T02:38:27.602Z,52.9
2018-11-20T02:39:17.970Z,52.9
2018-11-20T02:40:08.317Z,52.9
2018-11-20T02:40:57.955Z,52.9
2018-11-20T02:41:48.308Z,52.9
2018-11-20T02:42:38.517Z,52.9
2018-11-20T02:43:27.670Z,52.9
2018-11-20T02:44:18.095Z,52.9
2018-11-20T02:45:08.075Z,52.9
2018-11-20T02:45:58.087Z,52.9
2018-11-20T02:46:47.833Z,52.9
2018-11-20T02:47:38.565Z,52.9
2018-11-20T02:48:31.386Z,52.9
2018-11-20T02:49:17.790Z,52.9
2018-11-20T02:50:08.797Z,52.9
2018-11-20T02:50:58.479Z,52.9
2018-11-20T02:51:49.642Z,52.8
2018-11-20T02:52:39.160Z,52.8
2018-11-20T02:54:18.545Z,52.8
2018-11-20T02:55:08.810Z,52.8
2018-11-20T02:55:58.925Z,52.8
2018-11-20T02:56:49.217Z,52.8
2018-11-20T02:57:39.047Z,52.8
2018-11-20T02:58:28.979Z,52.8
2018-11-20T02:59:18.851Z,52.8
2018-11-20T03:00:09.399Z,52.8
2018-11-20T03:00:59.289Z,52.8
2018-11-20T03:01:49.536Z,52.8
2018-11-20T03:02:39.339Z,52.8
2018-11-20T03:03:29.267Z,52.8
2018-11-20T03:04:19.420Z,52.8
2018-11-20T03:05:09.197Z,52.8
2018-11-20T03:05:59.266Z,52.8
2018-11-20T03:06:49.969Z,52.8
2018-11-20T03:07:39.396Z,52.8
2018-11-20T03:08:30.279Z,52.8
2018-11-20T03:09:20.323Z,52.7
2018-11-20T03:10:10.216Z,52.7
2018-11-20T03:11:00.541Z,52.7
2018-11-20T03:11:49.662Z,52.7
2018-11-20T03:12:39.806Z,52.7
2018-11-20T03:13:30.067Z,52.7
2018-11-20T03:14:20.128Z,52.7
2018-11-20T03:15:10.246Z,52.7
2018-11-20T03:16:00.279Z,52.7
2018-11-20T03:16:50.208Z,52.7
2018-11-20T03:17:41.036Z,52.7
2018-11-20T03:18:30.986Z,52.6
2018-11-20T03:19:20.471Z,52.6
2018-11-20T03:20:10.646Z,52.6
2018-11-20T03:21:01.191Z,52.6
2018-11-20T03:21:50.919Z,52.6
2018-11-20T03:22:40.981Z,52.6
2018-11-20T03:23:31.033Z,52.6
2018-11-20T03:24:20.830Z,52.6
2018-11-20T03:25:11.102Z,52.6
2018-11-20T03:26:01.510Z,52.6
2018-11-20T03:26:51.300Z,52.6
2018-11-20T03:27:41.617Z,52.6
2018-11-20T03:28:31.194Z,52.6
2018-11-20T03:29:21.478Z,52.6
2018-11-20T03:30:11.332Z,52.6
2018-11-20T03:31:01.367Z,52.6
2018-11-20T03:31:51.631Z,52.6
2018-11-20T03:32:41.578Z,52.6
2018-11-20T03:33:31.503Z,52.6
2018-11-20T03:34:22.162Z,52.5
2018-11-20T03:35:11.885Z,52.6
2018-11-20T03:36:01.986Z,52.5
2018-11-20T03:36:52.083Z,52.6
2018-11-20T03:37:41.732Z,52.5
2018-11-20T03:38:31.234Z,52.5
2018-11-20T03:39:21.675Z,52.5
2018-11-20T03:40:12.322Z,52.5
2018-11-20T03:41:02.294Z,52.5
2018-11-20T03:41:52.667Z,52.5
2018-11-20T03:42:42.207Z,52.5
2018-11-20T03:43:32.448Z,52.4
2018-11-20T03:44:23.089Z,52.5
2018-11-20T03:45:12.534Z,52.5
2018-11-20T03:46:02.296Z,52.4
2018-11-20T03:46:52.959Z,52.4
2018-11-20T03:47:42.678Z,52.4
2018-11-20T03:48:32.269Z,52.4
2018-11-20T03:49:22.682Z,52.4
2018-11-20T03:50:12.906Z,52.4
2018-11-20T03:51:02.682Z,52.4
2018-11-20T03:51:53.013Z,52.4
2018-11-20T03:52:42.458Z,52.4
2018-11-20T04:03:33.538Z,52.3
2018-11-20T04:04:23.612Z,52.3
2018-11-20T04:05:14.555Z,52.3
2018-11-20T04:06:03.740Z,52.3
2018-11-20T04:06:53.528Z,52.3
2018-11-20T04:07:44.149Z,52.3
2018-11-20T04:08:34.208Z,52.3
2018-11-20T04:09:24.282Z,52.3
2018-11-20T04:10:14.559Z,52.3
2018-11-20T04:11:03.821Z,52.3
2018-11-20T04:11:53.870Z,52.3
2018-11-20T04:12:44.465Z,52.3
2018-11-20T04:13:34.247Z,52.3
2018-11-20T04:14:24.608Z,52.3
2018-11-20T04:15:13.602Z,52.3
2018-11-20T04:16:04.536Z,52.3
2018-11-20T04:16:54.486Z,52.3
2018-11-20T04:17:45.644Z,52.3
2018-11-20T04:18:34.902Z,52.2
2018-11-20T04:19:24.844Z,52.2
2018-11-20T04:20:14.534Z,52.2
2018-11-20T04:21:04.600Z,52.2
2018-11-20T04:21:54.271Z,52.2
2018-11-20T04:22:44.634Z,52.2
2018-11-20T04:23:34.836Z,52.2
2018-11-20T04:24:25.026Z,52.2
2018-11-20T04:25:31.191Z,52.2
2018-11-20T04:26:05.431Z,52.2
2018-11-20T04:26:56.020Z,52.2
2018-11-20T04:27:45.621Z,52.2
2018-11-20T04:28:35.588Z,52.1
2018-11-20T04:29:24.879Z,52.1
2018-11-20T04:30:16.259Z,52.2
2018-11-20T04:31:06.261Z,52.1
2018-11-20T04:31:56.219Z,52.1
2018-11-20T04:32:45.667Z,52.1
2018-11-20T04:33:35.963Z,52.1
2018-11-20T04:34:26.283Z,52.1
2018-11-20T04:35:16.366Z,52.1
2018-11-20T04:36:06.118Z,52.1
2018-11-20T04:36:56.243Z,52.1
2018-11-20T09:08:40.298Z,50.1
2018-11-20T09:09:30.055Z,50.1
2018-11-20T09:10:19.635Z,50.1
2018-11-20T09:11:09.077Z,50.1
2018-11-20T09:12:00.099Z,50.1
2018-11-20T09:12:49.889Z,50.1
2018-11-20T09:13:40.794Z,50
2018-11-20T09:14:30.192Z,50.1
2018-11-20T09:15:20.293Z,50
2018-11-20T09:16:10.374Z,50
2018-11-20T09:17:00.931Z,50
2018-11-20T09:17:50.555Z,50
2018-11-20T09:18:40.536Z,50
2018-11-20T09:19:31.144Z,50
2018-11-20T09:20:21.816Z,50
2018-11-20T09:21:11.643Z,49.9
2018-11-20T09:22:00.702Z,49.9
2018-11-20T09:22:51.051Z,49.9
2018-11-20T09:23:41.728Z,50
2018-11-20T09:24:30.863Z,49.9
2018-11-20T09:25:20.061Z,49.9
2018-11-20T09:26:10.784Z,49.9
2018-11-20T09:27:01.422Z,49.9
2018-11-20T09:27:51.586Z,49.9
2018-11-20T09:28:40.956Z,49.9
2018-11-20T09:29:31.295Z,49.9
2018-11-20T09:30:20.514Z,49.9
2018-11-20T09:31:10.659Z,49.9
2018-11-20T09:32:00.583Z,49.9
2018-11-20T09:32:51.719Z,49.9
2018-11-20T09:33:41.576Z,49.9
2018-11-20T09:34:32.593Z,49.9
2018-11-20T09:35:22.634Z,49.9
2018-11-20T09:36:11.985Z,49.9
2018-11-20T09:37:01.525Z,49.9
2018-11-20T09:37:51.613Z,49.9
2018-11-20T09:38:41.874Z,49.9
2018-11-20T09:39:32.522Z,49.9
2018-11-20T09:40:21.103Z,49.8
2018-11-20T09:41:11.735Z,49.8
2018-11-20T09:42:02.045Z,49.8
2018-11-20T09:42:52.754Z,49.8
2018-11-20T09:43:41.904Z,49.8
2018-11-20T09:44:32.035Z,49.8
2018-11-20T09:45:21.735Z,49.8
2018-11-20T09:46:12.392Z,49.8
2018-11-20T09:47:01.846Z,49.8
2018-11-20T09:47:52.559Z,49.8
2018-11-20T09:48:42.375Z,49.8
2018-11-20T09:49:32.897Z,49.8
2018-11-20T09:50:22.702Z,49.8
2018-11-20T09:51:12.497Z,49.8
2018-11-20T09:52:02.615Z,49.8
2018-11-20T09:52:53.587Z,49.8
2018-11-20T09:53:42.332Z,49.8
2018-11-20T09:54:33.302Z,49.8
2018-11-20T09:55:22.701Z,49.7
2018-11-20T09:56:12.764Z,49.8
2018-11-20T09:57:03.141Z,49.7
2018-11-20T09:57:52.952Z,49.7
2018-11-20T09:58:43.519Z,49.7
2018-11-20T09:59:34.319Z,49.7
2018-11-20T10:00:23.934Z,49.7
2018-11-20T10:01:13.424Z,49.7
2018-11-20T10:02:03.486Z,49.7
2018-11-20T10:02:53.623Z,49.7
2018-11-20T10:03:43.769Z,49.6
2018-11-20T10:04:33.077Z,49.7
2018-11-20T10:05:23.943Z,49.6
2018-11-20T10:06:13.780Z,49.6
2018-11-20T10:07:04.536Z,49.6
2018-11-20T10:07:53.794Z,49.6
2018-11-20T10:08:44.441Z,49.6
2018-11-20T10:09:34.613Z,49.6
2018-11-20T10:10:22.896Z,49.6
2018-11-20T10:11:14.101Z,49.6
2018-11-20T10:12:03.688Z,49.6
2018-11-20T10:12:54.285Z,49.6
2018-11-20T10:13:44.540Z,49.6
2018-11-20T10:14:35.606Z,49.6
2018-11-20T10:15:24.755Z,49.6
2018-11-20T10:16:14.360Z,49.6
2018-11-20T10:17:04.209Z,49.6
2018-11-20T10:17:54.880Z,49.6
2018-11-20T10:18:44.052Z,49.5
2018-11-20T10:19:34.965Z,49.5
2018-11-20T10:20:25.108Z,49.5
2018-11-20T10:21:14.936Z,49.5
2018-11-20T10:22:05.981Z,49.5
2018-11-20T10:22:54.355Z,49.5
2018-11-20T10:23:44.925Z,49.5
2018-11-20T10:24:35.654Z,49.5
2018-11-20T10:25:26.067Z,49.5
2018-11-20T10:26:16.385Z,49.5
2018-11-20T10:27:05.500Z,49.4
2018-11-20T10:27:54.827Z,49.5
2018-11-20T10:28:45.641Z,49.4
2018-11-20T10:29:35.960Z,49.4
2018-11-20T10:30:25.436Z,49.4
2018-11-20T10:31:16.079Z,49.4
2018-11-20T10:32:05.562Z,49.4
2018-11-20T10:32:56.221Z,49.4
2018-11-20T10:33:46.209Z,49.4
2018-11-20T10:34:35.929Z,49.4
2018-11-20T10:35:25.953Z,49.4
2018-11-20T10:36:16.681Z,49.4
2018-11-20T10:37:05.306Z,49.4
2018-11-20T10:37:55.663Z,49.4
2018-11-20T10:38:45.735Z,49.4
2018-11-20T10:39:36.106Z,49.4
2018-11-20T10:40:26.356Z,49.4
2018-11-20T10:41:17.281Z,49.4
2018-11-20T10:42:05.455Z,49.4
2018-11-20T10:42:56.118Z,49.4
2018-11-20T10:43:46.438Z,49.4
2018-11-20T10:44:36.108Z,49.4
2018-11-20T10:45:26.561Z,49.3
2018-11-20T10:46:17.454Z,49.3
2018-11-20T10:47:06.636Z,49.3
2018-11-20T10:47:56.071Z,49.3
2018-11-20T10:48:46.759Z,49.3
2018-11-20T10:49:37.060Z,49.3
2018-11-20T10:50:27.455Z,49.3
2018-11-20T10:51:17.486Z,49.3
2018-11-20T10:52:06.176Z,49.3
2018-11-20T10:52:56.680Z,49.3
2018-11-20T10:53:47.086Z,49.3
2018-11-20T10:54:36.730Z,49.3
2018-11-20T10:55:27.260Z,49.3
2018-11-20T10:56:16.776Z,49.3
2018-11-20T10:57:07.298Z,49.3
2018-11-20T10:57:57.095Z,49.3
2018-11-20T10:58:47.382Z,49.3
2018-11-20T10:59:38.334Z,49.3
2018-11-20T11:00:27.317Z,49.3
2018-11-20T11:01:18.525Z,49.2
2018-11-20T11:02:07.149Z,49.2
2018-11-20T11:02:57.730Z,49.2
2018-11-20T11:03:47.054Z,49.2
2018-11-20T11:04:37.599Z,49.2
2018-11-20T11:05:27.542Z,49.2
2018-11-20T11:06:18.140Z,49.2
2018-11-20T11:07:11.525Z,49.2
2018-11-20T11:07:58.954Z,49.1
2018-11-20T11:08:48.472Z,49.1
2018-11-20T11:09:37.472Z,49.1
2018-11-20T11:10:27.637Z,49.1
2018-11-20T11:11:18.930Z,49.1
2018-11-20T11:12:10.544Z,49.1
2018-11-20T11:12:59.263Z,49.1
2018-11-20T11:13:49.297Z,49.1
2018-11-20T11:14:39.599Z,49.1
2018-11-20T11:15:28.553Z,49.1
2018-11-20T11:16:18.617Z,49.1
2018-11-20T11:17:09.751Z,49.1
2018-11-20T11:17:59.283Z,49.1
2018-11-20T11:18:48.407Z,49.1
2018-11-20T11:19:39.069Z,49.1
2018-11-20T11:20:30.009Z,49.1
2018-11-20T11:21:18.927Z,49.1
2018-11-20T11:22:09.319Z,49.1
2018-11-20T11:23:01.447Z,49.1
2018-11-20T11:23:49.457Z,49.1
2018-11-20T11:24:38.974Z,49.1
2018-11-20T11:25:29.546Z,49
2018-11-20T11:26:19.146Z,49.1
2018-11-20T11:27:09.103Z,49
2018-11-20T11:27:59.146Z,49
2018-11-20T11:28:53.076Z,49
2018-11-20T11:29:39.869Z,49
2018-11-20T11:30:29.581Z,49
2018-11-20T11:31:19.679Z,49
2018-11-20T11:32:09.733Z,49
2018-11-20T11:32:59.016Z,48.9
2018-11-20T11:33:49.628Z,48.9
2018-11-20T11:34:40.202Z,49
2018-11-20T11:35:29.766Z,48.9
2018-11-20T11:36:19.704Z,48.9
2018-11-20T11:37:10.458Z,48.9
2018-11-20T11:38:00.454Z,48.9
2018-11-20T11:38:50.754Z,48.9
2018-11-20T11:39:40.613Z,48.9
2018-11-20T11:40:30.630Z,48.9
2018-11-20T11:41:20.453Z,48.9
2018-11-20T11:42:10.535Z,48.9
2018-11-20T11:42:59.828Z,48.9
2018-11-20T11:43:50.578Z,48.9
2018-11-20T11:44:40.705Z,48.9
2018-11-20T11:45:29.860Z,48.9
2018-11-20T11:46:20.345Z,48.9
2018-11-20T11:47:11.025Z,48.9
2018-11-20T11:48:00.873Z,48.9
2018-11-20T11:48:50.582Z,48.9
2018-11-20T11:49:40.762Z,48.8
2018-11-20T11:50:30.525Z,48.9
2018-11-20T11:51:21.419Z,48.8
2018-11-20T11:52:11.479Z,48.8
2018-11-20T11:53:01.154Z,48.8
2018-11-20T11:53:50.897Z,48.8
2018-11-20T11:54:40.965Z,48.8
2018-11-20T11:55:31.052Z,48.8
2018-11-20T11:56:21.677Z,48.8
2018-11-20T11:57:11.725Z,48.8
2018-11-20T11:58:01.155Z,48.8
2018-11-20T11:58:51.353Z,48.8
2018-11-20T11:59:41.542Z,48.8
2018-11-20T12:00:31.982Z,48.8
2018-11-20T12:01:21.816Z,48.8
2018-11-20T12:03:51.724Z,48.8
2018-11-20T12:04:42.247Z,48.8
2018-11-20T12:05:31.298Z,48.8
2018-11-20T12:06:21.511Z,48.8
2018-11-20T12:07:12.281Z,48.7
2018-11-20T12:08:02.096Z,48.7
2018-11-20T12:08:52.546Z,48.7
2018-11-20T12:09:42.033Z,48.7
2018-11-20T12:10:37.136Z,48.7
2018-11-20T12:11:22.476Z,48.7
2018-11-20T12:12:12.299Z,48.7
2018-11-20T12:13:02.885Z,48.7
2018-11-20T12:13:51.830Z,48.6
2018-11-20T12:14:43.305Z,48.6
2018-11-20T12:15:32.576Z,48.6
2018-11-20T12:16:22.761Z,48.6
2018-11-20T12:17:12.518Z,48.6
2018-11-20T12:18:03.176Z,48.6
2018-11-20T12:18:54.252Z,48.6
2018-11-20T12:19:42.770Z,48.6
2018-11-20T12:20:32.483Z,48.6
2018-11-20T12:21:22.257Z,48.6
2018-11-20T12:22:12.695Z,48.6
2018-11-20T12:23:02.465Z,48.6
2018-11-20T12:23:52.810Z,48.6
2018-11-20T12:24:43.178Z,48.6
2018-11-20T12:25:32.920Z,48.6
2018-11-20T12:26:23.210Z,48.6
2018-11-20T12:27:13.045Z,48.6
2018-11-20T12:28:02.808Z,48.6
2018-11-20T12:28:59.201Z,48.6
2018-11-20T12:29:44.325Z,48.6
2018-11-20T12:30:32.588Z,48.5
2018-11-20T12:31:23.850Z,48.5
2018-11-20T12:32:13.603Z,48.5
2018-11-20T12:33:03.986Z,48.5
2018-11-20T12:33:53.694Z,48.5
2018-11-20T12:34:44.627Z,48.5
2018-11-20T12:35:41.492Z,48.5
2018-11-20T12:36:23.912Z,48.5
2018-11-20T12:37:14.418Z,48.5
2018-11-20T12:38:04.407Z,48.4
2018-11-20T12:38:53.562Z,48.4
2018-11-20T12:39:44.317Z,48.4
2018-11-20T12:40:35.191Z,48.4
2018-11-20T12:41:24.301Z,48.4
2018-11-20T12:42:14.569Z,48.4
2018-11-20T12:43:04.466Z,48.4
2018-11-20T12:43:58.010Z,48.4
2018-11-20T12:44:44.279Z,48.4
2018-11-20T12:45:37.671Z,48.4
2018-11-20T12:46:23.380Z,48.4
2018-11-20T12:47:17.097Z,48.4
2018-11-20T12:48:07.401Z,48.4
2018-11-20T12:48:58.866Z,48.4
2018-11-20T12:49:45.054Z,48.4
2018-11-20T12:50:34.844Z,48.4
2018-11-20T12:51:28.102Z,48.4
2018-11-20T12:52:15.849Z,48.4
2018-11-20T12:53:06.232Z,48.4
2018-11-20T12:53:55.216Z,48.3
2018-11-20T12:54:45.449Z,48.3
2018-11-20T12:55:39.226Z,48.4
2018-11-20T12:56:25.151Z,48.3
2018-11-20T12:57:16.540Z,48.3
2018-11-20T12:58:05.483Z,48.3
2018-11-20T12:58:57.275Z,48.3
2018-11-20T12:59:45.772Z,48.3
2018-11-20T13:00:39.419Z,48.3
2018-11-20T13:01:25.450Z,48.3
2018-11-20T13:02:16.939Z,48.3
2018-11-20T13:03:05.803Z,48.3
2018-11-20T13:03:55.283Z,48.3
2018-11-20T13:04:45.820Z,48.3
2018-11-20T13:05:37.044Z,48.3
2018-11-20T13:06:26.335Z,48.3
2018-11-20T13:07:16.842Z,48.3
2018-11-20T13:08:05.977Z,48.3
2018-11-20T13:08:56.105Z,48.3
2018-11-20T13:09:46.822Z,48.3
2018-11-20T13:10:36.239Z,48.3
2018-11-20T13:11:26.271Z,48.3
2018-11-20T13:12:16.066Z,48.2
2018-11-20T13:13:06.417Z,48.2
2018-11-20T13:14:00.556Z,48.2
2018-11-20T13:14:46.823Z,48.2
2018-11-20T13:15:37.132Z,48.2
2018-11-20T13:16:26.657Z,48.2
2018-11-20T13:17:19.164Z,48.2
2018-11-20T13:18:09.096Z,48.2
2018-11-20T13:18:58.356Z,48.1
2018-11-20T13:19:47.172Z,48.2
2018-11-20T13:20:37.463Z,48.1
2018-11-20T13:21:27.004Z,48.1
2018-11-20T13:22:17.621Z,48.1
2018-11-20T13:23:07.674Z,48.1
2018-11-20T13:23:58.016Z,48.1
2018-11-20T13:24:47.578Z,48.1
2018-11-20T13:25:37.858Z,48.1
2018-11-20T13:26:28.511Z,48.1
2018-11-20T13:27:17.401Z,48.1
2018-11-20T13:28:07.486Z,48.1
2018-11-20T13:28:57.496Z,48.1
2018-11-20T13:29:47.573Z,48.1
2018-11-20T13:30:38.026Z,48.1
2018-11-20T13:31:28.101Z,48.1
2018-11-20T13:32:17.898Z,48.1
2018-11-20T13:33:07.801Z,48.1
2018-11-20T13:33:59.610Z,48.1
2018-11-20T13:34:51.599Z,48.1
2018-11-20T13:35:38.051Z,48.1
2018-11-20T13:36:28.314Z,48
2018-11-20T13:37:19.492Z,48
2018-11-20T13:38:07.884Z,48
2018-11-20T13:38:57.908Z,48
2018-11-20T13:39:48.825Z,48
2018-11-20T13:40:37.936Z,48
2018-11-20T13:41:27.991Z,48
2018-11-20T13:42:18.538Z,48
2018-11-20T13:43:09.018Z,48
2018-11-20T13:43:59.435Z,47.9
2018-11-20T13:44:48.735Z,47.9
2018-11-20T13:45:38.662Z,48
2018-11-20T13:46:28.530Z,47.9
2018-11-20T13:47:18.392Z,47.9
2018-11-20T13:48:09.125Z,47.9
2018-11-20T13:48:58.887Z,47.9
2018-11-20T13:49:48.775Z,47.9
2018-11-20T13:50:39.362Z,47.9
2018-11-20T14:07:27.493Z,47.8
2018-11-20T14:08:17.184Z,47.8
2018-11-20T14:09:08.560Z,47.8
2018-11-20T14:09:57.766Z,47.8
2018-11-20T14:10:47.620Z,47.8
2018-11-20T14:11:52.363Z,47.8
2018-11-20T14:12:27.170Z,47.8
2018-11-20T14:13:18.150Z,47.8
2018-11-20T14:14:07.900Z,47.8
2018-11-20T14:14:57.923Z,47.8
2018-11-20T14:15:47.688Z,47.8
2018-11-20T14:16:38.294Z,47.8
2018-11-20T14:17:28.097Z,47.7
2018-11-20T14:18:18.553Z,47.7
2018-11-20T14:19:22.212Z,47.7
2018-11-20T14:19:58.631Z,47.7
2018-11-20T14:20:48.033Z,47.7
2018-11-20T14:21:39.007Z,47.7
2018-11-20T14:22:27.572Z,47.7
2018-11-20T14:23:18.895Z,47.7
2018-11-20T14:24:08.345Z,47.7
2018-11-20T14:24:58.231Z,47.6
2018-11-20T14:25:48.725Z,47.7
2018-11-20T14:26:53.384Z,47.6
2018-11-20T14:27:28.122Z,47.6
2018-11-20T14:28:33.691Z,47.6
2018-11-20T14:29:09.120Z,47.6
2018-11-20T14:30:13.887Z,47.6
2018-11-20T14:30:48.507Z,47.6
2018-11-20T14:31:38.821Z,47.6
2018-11-20T14:32:29.952Z,47.6
2018-11-20T14:33:18.622Z,47.6
2018-11-20T14:34:09.537Z,47.6
2018-11-20T14:34:59.711Z,47.6
2018-11-20T14:35:48.785Z,47.6
2018-11-20T14:36:54.362Z,47.6
2018-11-20T14:37:30.399Z,47.6
2018-11-20T14:38:19.015Z,47.6
2018-11-20T14:39:09.734Z,47.6
2018-11-20T14:39:59.369Z,47.6
2018-11-20T14:41:21.221Z,47.6
2018-11-20T14:41:39.872Z,47.5
2018-11-20T14:42:29.348Z,47.5
2018-11-20T14:43:19.346Z,47.5
2018-11-20T14:44:10.256Z,47.5
2018-11-20T14:44:59.824Z,47.5
2018-11-20T14:45:50.062Z,47.5
2018-11-20T14:46:40.032Z,47.5
2018-11-20T14:47:29.843Z,47.5
2018-11-20T14:49:10.296Z,47.5
2018-11-20T14:50:00.064Z,47.5
2018-11-20T14:51:04.566Z,47.4
2018-11-20T14:51:39.773Z,47.5
2018-11-20T14:52:30.418Z,47.4
2018-11-20T14:53:20.858Z,47.4
2018-11-20T14:54:10.771Z,47.4
2018-11-20T14:55:00.221Z,47.4
2018-11-20T14:55:50.170Z,47.4
2018-11-20T14:56:41.373Z,47.4
2018-11-20T14:57:30.636Z,47.4
2018-11-20T14:58:21.088Z,47.4
2018-11-20T14:59:10.118Z,47.4
2018-11-20T15:00:01.521Z,47.4
2018-11-20T15:00:50.988Z,47.4
2018-11-20T15:01:40.565Z,47.4
2018-11-20T15:02:30.504Z,47.4
2018-11-20T15:03:21.267Z,47.4
2018-11-20T15:04:11.088Z,47.4
2018-11-20T15:05:01.610Z,47.4
2018-11-20T15:05:51.476Z,47.4
2018-11-20T15:06:41.120Z,47.4
2018-11-20T15:07:31.637Z,47.3
2018-11-20T15:08:21.552Z,47.4
2018-11-20T15:09:11.464Z,47.3
2018-11-20T15:10:01.127Z,47.3
2018-11-20T15:10:51.764Z,47.3
2018-11-20T15:11:42.225Z,47.3
2018-11-20T15:12:31.215Z,47.3
2018-11-20T15:13:22.047Z,47.3
2018-11-20T15:14:11.688Z,47.3
2018-11-20T15:15:02.431Z,47.3
2018-11-20T15:15:51.062Z,47.3
2018-11-20T15:16:42.167Z,47.3
2018-11-20T15:17:32.243Z,47.3
2018-11-20T15:18:22.361Z,47.3
2018-11-20T15:19:11.887Z,47.3
2018-11-20T15:20:02.656Z,47.3
2018-11-20T15:20:51.969Z,47.3
2018-11-20T15:21:42.261Z,47.3
2018-11-20T15:22:32.638Z,47.3
2018-11-20T15:23:22.951Z,47.3
2018-11-20T15:24:12.416Z,47.2
2018-11-20T15:25:03.605Z,47.2
2018-11-20T15:25:52.800Z,47.2
2018-11-20T15:26:41.994Z,47.2
2018-11-20T15:27:33.503Z,47.2
2018-11-20T15:28:23.239Z,47.2
2018-11-20T15:29:12.781Z,47.2
2018-11-20T15:30:02.854Z,47.2
2018-11-20T15:31:07.883Z,47.2
2018-11-20T15:31:42.737Z,47.2
2018-11-20T15:32:33.959Z,47.2
2018-11-20T15:33:23.393Z,47.1
2018-11-20T15:34:13.141Z,47.1
2018-11-20T15:35:04.240Z,47.1
2018-11-20T15:35:52.655Z,47.1
2018-11-20T15:36:43.931Z,47.1
2018-11-20T15:37:34.015Z,47.1
2018-11-20T15:38:23.288Z,47.1
2018-11-20T15:39:13.733Z,47.1
2018-11-20T15:40:03.902Z,47.1
2018-11-20T15:40:53.653Z,47.1
2018-11-20T15:41:44.885Z,47.1
2018-11-20T15:42:33.918Z,47.1
2018-11-20T15:43:24.045Z,47.1
2018-11-20T15:44:13.512Z,47.1
2018-11-20T15:45:04.599Z,47.1
2018-11-20T15:45:54.531Z,47.1
2018-11-20T15:46:59.652Z,47.1
2018-11-20T15:47:33.537Z,47.1
2018-11-20T15:48:24.565Z,47.1
2018-11-20T15:49:14.702Z,47
2018-11-20T15:50:04.725Z,47
2018-11-20T15:50:54.549Z,47
2018-11-20T15:51:44.369Z,47
2018-11-20T15:52:35.234Z,47
2018-11-20T15:53:25.025Z,47
2018-11-20T15:54:15.089Z,47
2018-11-20T15:55:04.485Z,47
2018-11-20T15:55:54.411Z,47
2018-11-20T15:56:44.998Z,47
2018-11-20T15:57:35.018Z,47
2018-11-20T15:58:26.186Z,46.9
2018-11-20T15:59:14.391Z,47
2018-11-20T16:00:55.309Z,46.9
2018-11-20T16:01:45.324Z,46.9
2018-11-20T16:02:35.642Z,46.9
2018-11-20T16:03:26.985Z,46.9
2018-11-20T16:04:15.589Z,46.9
2018-11-20T16:05:04.984Z,46.9
2018-11-20T16:05:56.343Z,46.9
2018-11-20T16:06:45.084Z,46.9
2018-11-20T16:07:35.564Z,46.9
2018-11-20T16:08:25.858Z,46.9
2018-11-20T16:09:16.728Z,46.9
2018-11-20T16:10:05.664Z,46.9
2018-11-20T16:10:55.388Z,46.9
2018-11-20T16:11:46.016Z,46.9
2018-11-20T16:12:52.508Z,46.9
2018-11-20T16:13:25.323Z,46.9
2018-11-20T16:14:16.208Z,46.9
2018-11-20T16:15:05.975Z,46.8
2018-11-20T16:15:56.544Z,46.8
2018-11-20T16:16:46.572Z,46.8
2018-11-20T16:17:36.511Z,46.8
2018-11-20T16:18:26.212Z,46.8
2018-11-20T16:19:15.585Z,46.8
2018-11-20T16:20:20.710Z,46.8
2018-11-20T16:21:11.553Z,46.8
2018-11-20T16:21:46.945Z,46.8
2018-11-20T16:22:37.055Z,46.8
2018-11-20T16:23:26.832Z,46.8
2018-11-20T16:24:16.957Z,46.8
2018-11-20T16:25:06.472Z,46.8
2018-11-20T16:25:57.037Z,46.8
2018-11-20T16:26:47.537Z,46.8
2018-11-20T16:27:37.034Z,46.8
2018-11-20T16:28:42.442Z,46.8
2018-11-20T16:29:16.961Z,46.8
2018-11-20T16:30:06.512Z,46.8
2018-11-20T16:30:57.432Z,46.7
2018-11-20T16:31:47.261Z,46.8
2018-11-20T16:32:37.987Z,46.7
2018-11-20T16:33:26.954Z,46.8
2018-11-20T16:34:17.332Z,46.7